sensor_id;sensor_type;location;lat;lon;timestamp;temperature;humidity
79491;SHT31;68950;53.098;18.032;2023-04-25T08:01:09;18.17;57.36
79491;SHT31;68950;53.098;18.032;2023-04-25T08:03:36;18.33;57.30
79491;SHT31;68950;53.098;18.032;2023-04-25T08:06:02;18.43;57.29
79491;SHT31;68950;53.098;18.032;2023-04-25T08:08:29;18.54;57.23
79491;SHT31;68950;53.098;18.032;2023-04-25T08:10:56;18.66;57.21
79491;SHT31;68950;53.098;18.032;2023-04-25T08:13:22;18.79;57.20
79491;SHT31;68950;53.098;18.032;2023-04-25T08:15:49;18.91;57.19
79491;SHT31;68950;53.098;18.032;2023-04-25T08:18:16;19.00;57.13
79491;SHT31;68950;53.098;18.032;2023-04-25T08:20:42;19.09;57.11
79491;SHT31;68950;53.098;18.032;2023-04-25T08:23:09;19.17;57.10
79491;SHT31;68950;53.098;18.032;2023-04-25T08:25:37;19.27;57.08
79491;SHT31;68950;53.098;18.032;2023-04-25T08:28:03;19.34;57.01
79491;SHT31;68950;53.098;18.032;2023-04-25T08:30:32;19.42;57.01
79491;SHT31;68950;53.098;18.032;2023-04-25T08:32:58;19.49;57.00
79491;SHT31;68950;53.098;18.032;2023-04-25T08:35:25;19.56;57.00
79491;SHT31;68950;53.098;18.032;2023-04-25T08:37:52;19.61;56.95
79491;SHT31;68950;53.098;18.032;2023-04-25T08:40:19;19.67;56.91
79491;SHT31;68950;53.098;18.032;2023-04-25T08:42:52;19.72;56.90
79491;SHT31;68950;53.098;18.032;2023-04-25T08:45:20;19.75;56.85
79491;SHT31;68950;53.098;18.032;2023-04-25T08:47:47;19.79;56.82
79491;SHT31;68950;53.098;18.032;2023-04-25T08:50:16;19.82;56.80
79491;SHT31;68950;53.098;18.032;2023-04-25T08:52:43;19.83;56.80
79491;SHT31;68950;53.098;18.032;2023-04-25T08:55:15;19.84;56.74
79491;SHT31;68950;53.098;18.032;2023-04-25T08:57:42;19.86;56.70
79491;SHT31;68950;53.098;18.032;2023-04-25T09:00:11;19.86;56.68
79491;SHT31;68950;53.098;18.032;2023-04-25T09:02:39;19.89;56.62
79491;SHT31;68950;53.098;18.032;2023-04-25T09:05:08;19.92;56.60
79491;SHT31;68950;53.098;18.032;2023-04-25T09:07:38;19.96;56.59
79491;SHT31;68950;53.098;18.032;2023-04-25T09:10:05;20.00;56.52
79491;SHT31;68950;53.098;18.032;2023-04-25T09:12:32;20.05;56.50
79491;SHT31;68950;53.098;18.032;2023-04-25T09:15:03;20.09;56.50
79491;SHT31;68950;53.098;18.032;2023-04-25T09:17:33;20.13;56.43
79491;SHT31;68950;53.098;18.032;2023-04-25T09:22:38;20.22;56.39
79491;SHT31;68950;53.098;18.032;2023-04-25T09:25:09;20.26;56.34
79491;SHT31;68950;53.098;18.032;2023-04-25T09:27:53;20.28;56.32
79491;SHT31;68950;53.098;18.032;2023-04-25T09:30:28;20.32;56.30
79491;SHT31;68950;53.098;18.032;2023-04-25T09:32:57;20.35;56.26
79491;SHT31;68950;53.098;18.032;2023-04-25T09:35:36;20.36;56.20
79491;SHT31;68950;53.098;18.032;2023-04-25T09:38:08;20.39;56.20
79491;SHT31;68950;53.098;18.032;2023-04-25T09:40:44;20.42;56.14
79491;SHT31;68950;53.098;18.032;2023-04-25T09:43:19;20.45;56.10
79491;SHT31;68950;53.098;18.032;2023-04-25T09:45:48;20.48;56.09
79491;SHT31;68950;53.098;18.032;2023-04-25T09:48:18;20.50;56.06
79491;SHT31;68950;53.098;18.032;2023-04-25T09:53:44;20.49;55.95
79491;SHT31;68950;53.098;18.032;2023-04-25T09:56:13;20.47;55.91
79491;SHT31;68950;53.098;18.032;2023-04-25T09:58:40;20.49;55.89
79491;SHT31;68950;53.098;18.032;2023-04-25T10:01:08;20.50;55.83
79491;SHT31;68950;53.098;18.032;2023-04-25T10:03:37;20.51;55.80
79491;SHT31;68950;53.098;18.032;2023-04-25T10:06:12;20.53;55.76
79491;SHT31;68950;53.098;18.032;2023-04-25T10:08:45;20.54;55.73
79491;SHT31;68950;53.098;18.032;2023-04-25T10:11:17;20.58;55.70
79491;SHT31;68950;53.098;18.032;2023-04-25T10:13:44;20.60;55.70
79491;SHT31;68950;53.098;18.032;2023-04-25T10:16:13;20.61;55.62
79491;SHT31;68950;53.098;18.032;2023-04-25T10:18:40;20.62;55.60
79491;SHT31;68950;53.098;18.032;2023-04-25T10:21:07;20.65;55.59
79491;SHT31;68950;53.098;18.032;2023-04-25T10:23:33;20.65;55.52
79491;SHT31;68950;53.098;18.032;2023-04-25T10:26:03;20.66;55.50
79491;SHT31;68950;53.098;18.032;2023-04-25T10:28:39;20.67;55.46
79491;SHT31;68950;53.098;18.032;2023-04-25T10:31:25;20.70;55.43
79491;SHT31;68950;53.098;18.032;2023-04-25T10:33:54;20.70;55.40
79491;SHT31;68950;53.098;18.032;2023-04-25T10:36:21;20.72;55.37
79491;SHT31;68950;53.098;18.032;2023-04-25T10:38:50;20.73;55.33
79491;SHT31;68950;53.098;18.032;2023-04-25T10:41:18;20.75;55.30
79491;SHT31;68950;53.098;18.032;2023-04-25T10:43:47;20.76;55.28
79491;SHT31;68950;53.098;18.032;2023-04-25T10:46:17;20.75;55.23
79491;SHT31;68950;53.098;18.032;2023-04-25T10:48:56;20.74;55.21
79491;SHT31;68950;53.098;18.032;2023-04-25T10:51:28;20.75;55.19
79491;SHT31;68950;53.098;18.032;2023-04-25T10:53:59;20.72;55.13
79491;SHT31;68950;53.098;18.032;2023-04-25T10:56:33;20.70;55.11
79491;SHT31;68950;53.098;18.032;2023-04-25T10:59:09;20.66;55.09
79491;SHT31;68950;53.098;18.032;2023-04-25T11:01:39;20.63;55.03
79491;SHT31;68950;53.098;18.032;2023-04-25T11:07:00;20.61;54.99
79491;SHT31;68950;53.098;18.032;2023-04-25T11:09:39;20.60;54.93
79491;SHT31;68950;53.098;18.032;2023-04-25T11:12:07;20.59;54.90
79491;SHT31;68950;53.098;18.032;2023-04-25T11:14:37;20.59;54.90
79491;SHT31;68950;53.098;18.032;2023-04-25T11:17:04;20.61;54.87
79491;SHT31;68950;53.098;18.032;2023-04-25T11:19:31;20.62;54.81
79491;SHT31;68950;53.098;18.032;2023-04-25T11:21:59;20.61;54.80
79491;SHT31;68950;53.098;18.032;2023-04-25T11:24:28;20.58;54.80
79491;SHT31;68950;53.098;18.032;2023-04-25T11:27:01;20.55;54.80
79491;SHT31;68950;53.098;18.032;2023-04-25T11:29:30;20.55;54.75
79491;SHT31;68950;53.098;18.032;2023-04-25T11:31:58;20.53;54.76
79491;SHT31;68950;53.098;18.032;2023-04-25T11:34:27;20.51;54.71
79491;SHT31;68950;53.098;18.032;2023-04-25T11:37:02;20.51;54.70
79491;SHT31;68950;53.098;18.032;2023-04-25T11:39:29;20.51;54.72
79491;SHT31;68950;53.098;18.032;2023-04-25T11:41:56;20.53;54.70
79491;SHT31;68950;53.098;18.032;2023-04-25T11:44:23;20.56;54.70
79491;SHT31;68950;53.098;18.032;2023-04-25T11:46:49;20.57;54.72
79491;SHT31;68950;53.098;18.032;2023-04-25T11:49:16;20.61;54.71
79491;SHT31;68950;53.098;18.032;2023-04-25T11:51:46;20.62;54.72
79491;SHT31;68950;53.098;18.032;2023-04-25T11:54:14;20.63;54.71
79491;SHT31;68950;53.098;18.032;2023-04-25T11:56:42;20.64;54.71
79491;SHT31;68950;53.098;18.032;2023-04-25T11:59:11;20.67;54.73
79491;SHT31;68950;53.098;18.032;2023-04-25T12:01:39;20.72;54.74
79491;SHT31;68950;53.098;18.032;2023-04-25T12:06:51;20.78;54.78
79491;SHT31;68950;53.098;18.032;2023-04-25T12:09:21;20.82;54.80
79491;SHT31;68950;53.098;18.032;2023-04-25T12:11:59;20.87;54.80
79491;SHT31;68950;53.098;18.032;2023-04-25T12:14:32;20.92;54.80
79491;SHT31;68950;53.098;18.032;2023-04-25T12:17:01;20.96;54.81
79491;SHT31;68950;53.098;18.032;2023-04-25T12:19:33;21.01;54.80
79491;SHT31;68950;53.098;18.032;2023-04-25T12:22:03;21.05;54.79
79491;SHT31;68950;53.098;18.032;2023-04-25T12:24:46;21.09;54.80
79491;SHT31;68950;53.098;18.032;2023-04-25T12:27:14;21.12;54.80
79491;SHT31;68950;53.098;18.032;2023-04-25T12:29:49;21.15;54.80
79491;SHT31;68950;53.098;18.032;2023-04-25T12:32:21;21.16;54.80
79491;SHT31;68950;53.098;18.032;2023-04-25T12:34:48;21.17;54.81
79491;SHT31;68950;53.098;18.032;2023-04-25T12:37:15;21.19;54.80
79491;SHT31;68950;53.098;18.032;2023-04-25T12:39:42;21.20;54.80
79491;SHT31;68950;53.098;18.032;2023-04-25T12:42:09;21.21;54.80
79491;SHT31;68950;53.098;18.032;2023-04-25T12:44:38;21.21;54.80
79491;SHT31;68950;53.098;18.032;2023-04-25T12:47:05;21.21;54.80
79491;SHT31;68950;53.098;18.032;2023-04-25T12:49:31;21.23;54.80
79491;SHT31;68950;53.098;18.032;2023-04-25T12:51:59;21.26;54.80
79491;SHT31;68950;53.098;18.032;2023-04-25T12:54:26;21.29;54.79
79491;SHT31;68950;53.098;18.032;2023-04-25T12:56:52;21.31;54.80
79491;SHT31;68950;53.098;18.032;2023-04-25T12:59:19;21.32;54.80
79491;SHT31;68950;53.098;18.032;2023-04-25T13:01:47;21.33;54.80
79491;SHT31;68950;53.098;18.032;2023-04-25T13:04:13;21.33;54.77
79491;SHT31;68950;53.098;18.032;2023-04-25T13:06:41;21.33;54.76
79491;SHT31;68950;53.098;18.032;2023-04-25T13:09:07;21.31;54.75
79491;SHT31;68950;53.098;18.032;2023-04-25T13:11:34;21.29;54.72
79491;SHT31;68950;53.098;18.032;2023-04-25T13:14:01;21.30;54.73
79491;SHT31;68950;53.098;18.032;2023-04-25T13:16:28;21.29;54.71
79491;SHT31;68950;53.098;18.032;2023-04-25T13:18:55;21.28;54.70
79491;SHT31;68950;53.098;18.032;2023-04-25T13:21:22;21.27;54.70
79491;SHT31;68950;53.098;18.032;2023-04-25T13:23:49;21.27;54.71
79491;SHT31;68950;53.098;18.032;2023-04-25T13:26:16;21.25;54.70
79491;SHT31;68950;53.098;18.032;2023-04-25T13:28:43;21.23;54.71
79491;SHT31;68950;53.098;18.032;2023-04-25T13:31:09;21.22;54.70
79491;SHT31;68950;53.098;18.032;2023-04-25T13:33:36;21.20;54.70
79491;SHT31;68950;53.098;18.032;2023-04-25T13:36:02;21.19;54.70
79491;SHT31;68950;53.098;18.032;2023-04-25T13:38:30;21.19;54.70
79491;SHT31;68950;53.098;18.032;2023-04-25T13:40:56;21.18;54.69
79491;SHT31;68950;53.098;18.032;2023-04-25T13:43:23;21.18;54.70
79491;SHT31;68950;53.098;18.032;2023-04-25T13:45:49;21.21;54.68
79491;SHT31;68950;53.098;18.032;2023-04-25T13:48:17;21.23;54.69
79491;SHT31;68950;53.098;18.032;2023-04-25T13:50:45;21.26;54.70
79491;SHT31;68950;53.098;18.032;2023-04-25T13:53:12;21.29;54.69
79491;SHT31;68950;53.098;18.032;2023-04-25T13:55:39;21.32;54.70
79491;SHT31;68950;53.098;18.032;2023-04-25T13:58:06;21.33;54.69
79491;SHT31;68950;53.098;18.032;2023-04-25T14:00:36;21.36;54.69
79491;SHT31;68950;53.098;18.032;2023-04-25T14:03:05;21.36;54.70
79491;SHT31;68950;53.098;18.032;2023-04-25T14:05:34;21.37;54.69
79491;SHT31;68950;53.098;18.032;2023-04-25T14:08:08;21.35;54.68
79491;SHT31;68950;53.098;18.032;2023-04-25T14:10:36;21.32;54.70
79491;SHT31;68950;53.098;18.032;2023-04-25T14:13:03;21.29;54.68
79491;SHT31;68950;53.098;18.032;2023-04-25T14:15:31;21.25;54.69
79491;SHT31;68950;53.098;18.032;2023-04-25T14:17:59;21.21;54.64
79491;SHT31;68950;53.098;18.032;2023-04-25T14:20:26;21.16;54.64
79491;SHT31;68950;53.098;18.032;2023-04-25T14:22:54;21.12;54.64
79491;SHT31;68950;53.098;18.032;2023-04-25T14:25:22;21.07;54.61
79491;SHT31;68950;53.098;18.032;2023-04-25T14:27:49;21.05;54.60
79491;SHT31;68950;53.098;18.032;2023-04-25T14:30:17;21.02;54.60
79491;SHT31;68950;53.098;18.032;2023-04-25T14:34:13;20.97;54.61
79491;SHT31;68950;53.098;18.032;2023-04-25T14:36:39;20.98;54.62
79491;SHT31;68950;53.098;18.032;2023-04-25T14:39:06;20.98;54.62
79491;SHT31;68950;53.098;18.032;2023-04-25T14:41:33;20.96;54.64
79491;SHT31;68950;53.098;18.032;2023-04-25T14:43:59;20.95;54.68
79491;SHT31;68950;53.098;18.032;2023-04-25T14:46:26;20.95;54.68
79491;SHT31;68950;53.098;18.032;2023-04-25T14:48:53;20.95;54.68
79491;SHT31;68950;53.098;18.032;2023-04-25T14:51:21;20.95;54.70
79491;SHT31;68950;53.098;18.032;2023-04-25T14:53:48;20.96;54.69
79491;SHT31;68950;53.098;18.032;2023-04-25T14:56:16;21.00;54.70
79491;SHT31;68950;53.098;18.032;2023-04-25T14:58:43;21.05;54.70
79491;SHT31;68950;53.098;18.032;2023-04-25T15:01:09;21.06;54.72
79491;SHT31;68950;53.098;18.032;2023-04-25T15:03:36;21.05;54.70
79491;SHT31;68950;53.098;18.032;2023-04-25T15:06:03;21.04;54.74
79491;SHT31;68950;53.098;18.032;2023-04-25T15:08:30;21.02;54.73
79491;SHT31;68950;53.098;18.032;2023-04-25T15:10:57;21.01;54.76
79491;SHT31;68950;53.098;18.032;2023-04-25T15:13:24;21.01;54.79
79491;SHT31;68950;53.098;18.032;2023-04-25T15:15:51;20.99;54.76
79491;SHT31;68950;53.098;18.032;2023-04-25T15:18:20;20.96;54.76
79491;SHT31;68950;53.098;18.032;2023-04-25T15:20:49;20.94;54.79
79491;SHT31;68950;53.098;18.032;2023-04-25T15:23:17;20.91;54.79
79491;SHT31;68950;53.098;18.032;2023-04-25T15:25:46;20.88;54.77
79491;SHT31;68950;53.098;18.032;2023-04-25T15:28:13;20.85;54.79
79491;SHT31;68950;53.098;18.032;2023-04-25T15:30:43;20.85;54.80
79491;SHT31;68950;53.098;18.032;2023-04-25T15:33:10;20.84;54.80
79491;SHT31;68950;53.098;18.032;2023-04-25T15:35:36;20.82;54.80
79491;SHT31;68950;53.098;18.032;2023-04-25T15:38:03;20.81;54.80
79491;SHT31;68950;53.098;18.032;2023-04-25T15:40:30;20.80;54.80
79491;SHT31;68950;53.098;18.032;2023-04-25T15:42:57;20.78;54.80
79491;SHT31;68950;53.098;18.032;2023-04-25T15:45:24;20.77;54.83
79491;SHT31;68950;53.098;18.032;2023-04-25T15:47:52;20.77;54.80
79491;SHT31;68950;53.098;18.032;2023-04-25T15:50:22;20.75;54.83
79491;SHT31;68950;53.098;18.032;2023-04-25T15:52:50;20.76;54.83
79491;SHT31;68950;53.098;18.032;2023-04-25T15:55:18;20.76;54.84
79491;SHT31;68950;53.098;18.032;2023-04-25T15:57:47;20.77;54.89
79491;SHT31;68950;53.098;18.032;2023-04-25T16:00:16;20.78;54.90
79491;SHT31;68950;53.098;18.032;2023-04-25T16:02:44;20.79;54.90
79491;SHT31;68950;53.098;18.032;2023-04-25T16:05:13;20.78;54.90
79491;SHT31;68950;53.098;18.032;2023-04-25T16:07:40;20.80;54.92
79491;SHT31;68950;53.098;18.032;2023-04-25T16:10:09;20.78;54.97
79491;SHT31;68950;53.098;18.032;2023-04-25T16:12:37;20.78;54.99
79491;SHT31;68950;53.098;18.032;2023-04-25T16:15:08;20.78;55.00
79491;SHT31;68950;53.098;18.032;2023-04-25T16:17:35;20.77;55.00
79491;SHT31;68950;53.098;18.032;2023-04-25T16:20:01;20.76;55.06
79491;SHT31;68950;53.098;18.032;2023-04-25T16:22:35;20.75;55.07
79491;SHT31;68950;53.098;18.032;2023-04-25T16:25:04;20.73;55.09
79491;SHT31;68950;53.098;18.032;2023-04-25T16:27:32;20.71;55.10
79491;SHT31;68950;53.098;18.032;2023-04-25T16:30:06;20.70;55.10
79491;SHT31;68950;53.098;18.032;2023-04-25T16:32:35;20.69;55.14
79491;SHT31;68950;53.098;18.032;2023-04-25T16:35:03;20.68;55.18
79491;SHT31;68950;53.098;18.032;2023-04-25T16:37:31;20.67;55.20
79491;SHT31;68950;53.098;18.032;2023-04-25T16:39:57;20.69;55.20
79491;SHT31;68950;53.098;18.032;2023-04-25T16:42:24;20.70;55.26
79491;SHT31;68950;53.098;18.032;2023-04-25T16:44:50;20.72;55.29
79491;SHT31;68950;53.098;18.032;2023-04-25T16:47:17;20.79;55.30
79491;SHT31;68950;53.098;18.032;2023-04-25T16:49:44;20.85;55.34
79491;SHT31;68950;53.098;18.032;2023-04-25T16:52:11;20.93;55.40
79491;SHT31;68950;53.098;18.032;2023-04-25T16:54:38;21.02;55.40
79491;SHT31;68950;53.098;18.032;2023-04-25T16:57:04;21.09;55.48
79491;SHT31;68950;53.098;18.032;2023-04-25T16:59:32;21.17;55.50
79491;SHT31;68950;53.098;18.032;2023-04-25T17:01:58;21.24;55.51
79491;SHT31;68950;53.098;18.032;2023-04-25T17:04:25;21.31;55.58
79491;SHT31;68950;53.098;18.032;2023-04-25T17:06:52;21.39;55.60
79491;SHT31;68950;53.098;18.032;2023-04-25T17:09:19;21.45;55.60
79491;SHT31;68950;53.098;18.032;2023-04-25T17:11:45;21.49;55.60
79491;SHT31;68950;53.098;18.032;2023-04-25T17:14:13;21.55;55.66
79491;SHT31;68950;53.098;18.032;2023-04-25T17:16:39;21.58;55.67
79491;SHT31;68950;53.098;18.032;2023-04-25T17:19:06;21.62;55.68
79491;SHT31;68950;53.098;18.032;2023-04-25T17:21:34;21.64;55.70
79491;SHT31;68950;53.098;18.032;2023-04-25T17:24:00;21.65;55.69
79491;SHT31;68950;53.098;18.032;2023-04-25T17:26:31;21.67;55.69
79491;SHT31;68950;53.098;18.032;2023-04-25T17:31:12;21.70;55.67
79491;SHT31;68950;53.098;18.032;2023-04-25T17:33:39;21.72;55.67
79491;SHT31;68950;53.098;18.032;2023-04-25T17:36:05;21.72;55.66
79491;SHT31;68950;53.098;18.032;2023-04-25T17:38:32;21.71;55.64
79491;SHT31;68950;53.098;18.032;2023-04-25T17:41:01;21.73;55.65
79491;SHT31;68950;53.098;18.032;2023-04-25T17:43:29;21.76;55.66
79491;SHT31;68950;53.098;18.032;2023-04-25T17:45:56;21.75;55.61
79491;SHT31;68950;53.098;18.032;2023-04-25T17:48:24;21.74;55.62
79491;SHT31;68950;53.098;18.032;2023-04-25T17:50:51;21.72;55.61
79491;SHT31;68950;53.098;18.032;2023-04-25T17:53:18;21.70;55.60
79491;SHT31;68950;53.098;18.032;2023-04-25T17:55:45;21.67;55.60
79491;SHT31;68950;53.098;18.032;2023-04-25T17:58:11;21.64;55.60
79491;SHT31;68950;53.098;18.032;2023-04-25T18:00:38;21.62;55.60
79491;SHT31;68950;53.098;18.032;2023-04-25T18:03:05;21.56;55.59
79491;SHT31;68950;53.098;18.032;2023-04-25T18:05:32;21.53;55.54
79491;SHT31;68950;53.098;18.032;2023-04-25T18:07:59;21.47;55.51
79491;SHT31;68950;53.098;18.032;2023-04-25T18:10:26;21.44;55.50
79491;SHT31;68950;53.098;18.032;2023-04-25T18:12:53;21.41;55.50
79491;SHT31;68950;53.098;18.032;2023-04-25T18:15:19;21.37;55.50
79491;SHT31;68950;53.098;18.032;2023-04-25T18:17:47;21.34;55.50
79491;SHT31;68950;53.098;18.032;2023-04-25T18:20:14;21.31;55.50
79491;SHT31;68950;53.098;18.032;2023-04-25T18:22:43;21.29;55.49
79491;SHT31;68950;53.098;18.032;2023-04-25T18:25:11;21.26;55.48
79491;SHT31;68950;53.098;18.032;2023-04-25T18:27:39;21.26;55.48
79491;SHT31;68950;53.098;18.032;2023-04-25T18:30:07;21.27;55.49
79491;SHT31;68950;53.098;18.032;2023-04-25T18:32:36;21.29;55.49
79491;SHT31;68950;53.098;18.032;2023-04-25T18:35:03;21.33;55.49
79491;SHT31;68950;53.098;18.032;2023-04-25T18:37:31;21.38;55.49
79491;SHT31;68950;53.098;18.032;2023-04-25T18:39:57;21.44;55.49
79491;SHT31;68950;53.098;18.032;2023-04-25T18:42:24;21.48;55.50
79491;SHT31;68950;53.098;18.032;2023-04-25T18:44:51;21.53;55.50
79491;SHT31;68950;53.098;18.032;2023-04-25T18:47:17;21.58;55.50
79491;SHT31;68950;53.098;18.032;2023-04-25T18:49:44;21.65;55.50
79491;SHT31;68950;53.098;18.032;2023-04-25T18:52:11;21.69;55.50
79491;SHT31;68950;53.098;18.032;2023-04-25T18:54:40;21.74;55.50
79491;SHT31;68950;53.098;18.032;2023-04-25T18:57:07;21.80;55.50
79491;SHT31;68950;53.098;18.032;2023-04-25T18:59:34;21.86;55.50
79491;SHT31;68950;53.098;18.032;2023-04-25T19:02:01;21.90;55.50
79491;SHT31;68950;53.098;18.032;2023-04-25T19:04:30;21.93;55.50
79491;SHT31;68950;53.098;18.032;2023-04-25T19:06:57;21.94;55.49
79491;SHT31;68950;53.098;18.032;2023-04-25T19:09:24;21.97;55.50
79491;SHT31;68950;53.098;18.032;2023-04-25T19:11:51;21.98;55.48
79491;SHT31;68950;53.098;18.032;2023-04-25T19:14:18;21.98;55.47
79491;SHT31;68950;53.098;18.032;2023-04-25T19:16:44;21.98;55.46
79491;SHT31;68950;53.098;18.032;2023-04-25T19:19:11;21.96;55.41
79491;SHT31;68950;53.098;18.032;2023-04-25T19:21:38;21.95;55.40
79491;SHT31;68950;53.098;18.032;2023-04-25T19:24:05;21.95;55.40
79491;SHT31;68950;53.098;18.032;2023-04-25T19:26:32;21.93;55.40
79491;SHT31;68950;53.098;18.032;2023-04-25T19:29:03;21.92;55.36
79491;SHT31;68950;53.098;18.032;2023-04-25T19:31:36;21.89;55.35
79491;SHT31;68950;53.098;18.032;2023-04-25T19:34:04;21.85;55.32
79491;SHT31;68950;53.098;18.032;2023-04-25T19:36:35;21.81;55.30
79491;SHT31;68950;53.098;18.032;2023-04-25T19:39:03;21.78;55.29
79491;SHT31;68950;53.098;18.032;2023-04-25T19:41:35;21.75;55.29
79491;SHT31;68950;53.098;18.032;2023-04-25T19:44:04;21.71;55.28
79491;SHT31;68950;53.098;18.032;2023-04-25T19:46:33;21.68;55.26
79491;SHT31;68950;53.098;18.032;2023-04-25T19:49:02;21.64;55.21
79491;SHT31;68950;53.098;18.032;2023-04-25T19:51:33;21.60;55.20
79491;SHT31;68950;53.098;18.032;2023-04-25T19:54:01;21.55;55.19
79491;SHT31;68950;53.098;18.032;2023-04-25T19:56:28;21.53;55.20
79491;SHT31;68950;53.098;18.032;2023-04-25T19:58:55;21.50;55.19
79491;SHT31;68950;53.098;18.032;2023-04-25T20:01:23;21.47;55.13
79491;SHT31;68950;53.098;18.032;2023-04-25T20:03:50;21.44;55.14
79491;SHT31;68950;53.098;18.032;2023-04-25T20:06:17;21.43;55.14
79491;SHT31;68950;53.098;18.032;2023-04-25T20:08:44;21.44;55.12
79491;SHT31;68950;53.098;18.032;2023-04-25T20:11:12;21.45;55.13
79491;SHT31;68950;53.098;18.032;2023-04-25T20:13:40;21.49;55.13
79491;SHT31;68950;53.098;18.032;2023-04-25T20:16:07;21.56;55.16
79491;SHT31;68950;53.098;18.032;2023-04-25T20:18:33;21.62;55.17
79491;SHT31;68950;53.098;18.032;2023-04-25T20:21:00;21.69;55.16
79491;SHT31;68950;53.098;18.032;2023-04-25T20:23:30;21.76;55.19
79491;SHT31;68950;53.098;18.032;2023-04-25T20:25:57;21.81;55.20
79491;SHT31;68950;53.098;18.032;2023-04-25T20:28:23;21.84;55.17
79491;SHT31;68950;53.098;18.032;2023-04-25T20:30:50;21.88;55.13
79491;SHT31;68950;53.098;18.032;2023-04-25T20:33:17;21.90;55.12
79491;SHT31;68950;53.098;18.032;2023-04-25T20:35:43;21.89;55.10
79491;SHT31;68950;53.098;18.032;2023-04-25T20:38:11;21.88;55.07
79491;SHT31;68950;53.098;18.032;2023-04-25T20:40:37;21.85;55.01
79491;SHT31;68950;53.098;18.032;2023-04-25T20:43:05;21.84;55.00
79491;SHT31;68950;53.098;18.032;2023-04-25T20:45:32;21.85;54.92
79491;SHT31;68950;53.098;18.032;2023-04-25T20:47:59;21.84;54.89
79491;SHT31;68950;53.098;18.032;2023-04-25T20:50:27;21.80;54.87
79491;SHT31;68950;53.098;18.032;2023-04-25T20:52:58;21.77;54.82
79491;SHT31;68950;53.098;18.032;2023-04-25T20:55:25;21.75;54.77
79491;SHT31;68950;53.098;18.032;2023-04-25T20:57:52;21.75;54.71
79491;SHT31;68950;53.098;18.032;2023-04-25T21:00:18;21.72;54.69
79491;SHT31;68950;53.098;18.032;2023-04-25T21:02:52;21.71;54.62
79491;SHT31;68950;53.098;18.032;2023-04-25T21:05:19;21.69;54.60
79491;SHT31;68950;53.098;18.032;2023-04-25T21:07:49;21.68;54.57
79491;SHT31;68950;53.098;18.032;2023-04-25T21:10:20;21.67;54.50
79491;SHT31;68950;53.098;18.032;2023-04-25T21:12:47;21.66;54.47
79491;SHT31;68950;53.098;18.032;2023-04-25T21:15:15;21.64;54.45
79491;SHT31;68950;53.098;18.032;2023-04-25T21:17:48;21.62;54.39
79491;SHT31;68950;53.098;18.032;2023-04-25T21:20:17;21.59;54.36
79491;SHT31;68950;53.098;18.032;2023-04-25T21:22:46;21.56;54.30
79491;SHT31;68950;53.098;18.032;2023-04-25T21:25:17;21.54;54.30
79491;SHT31;68950;53.098;18.032;2023-04-25T21:27:46;21.51;54.26
79491;SHT31;68950;53.098;18.032;2023-04-25T21:30:19;21.49;54.20
79491;SHT31;68950;53.098;18.032;2023-04-25T21:32:48;21.46;54.19
79491;SHT31;68950;53.098;18.032;2023-04-25T21:35:16;21.44;54.15
79491;SHT31;68950;53.098;18.032;2023-04-25T21:37:45;21.42;54.10
79491;SHT31;68950;53.098;18.032;2023-04-25T21:40:13;21.39;54.10
79491;SHT31;68950;53.098;18.032;2023-04-25T21:42:40;21.37;54.08
79491;SHT31;68950;53.098;18.032;2023-04-25T21:45:09;21.34;54.02
79491;SHT31;68950;53.098;18.032;2023-04-25T21:47:36;21.31;54.00
79491;SHT31;68950;53.098;18.032;2023-04-25T21:50:04;21.27;54.00
79491;SHT31;68950;53.098;18.032;2023-04-25T21:52:32;21.23;53.98
79491;SHT31;68950;53.098;18.032;2023-04-25T21:55:00;21.20;53.93
79491;SHT31;68950;53.098;18.032;2023-04-25T21:57:27;21.15;53.90
79491;SHT31;68950;53.098;18.032;2023-04-25T21:59:54;21.11;53.90
79491;SHT31;68950;53.098;18.032;2023-04-25T22:02:21;21.06;53.90
79491;SHT31;68950;53.098;18.032;2023-04-25T22:04:48;21.03;53.89
79491;SHT31;68950;53.098;18.032;2023-04-25T22:07:15;21.00;53.85
79491;SHT31;68950;53.098;18.032;2023-04-25T22:09:42;20.97;53.82
79491;SHT31;68950;53.098;18.032;2023-04-25T22:12:09;20.95;53.82
79491;SHT31;68950;53.098;18.032;2023-04-25T22:14:36;20.93;53.81
79491;SHT31;68950;53.098;18.032;2023-04-25T22:17:03;20.91;53.80
79491;SHT31;68950;53.098;18.032;2023-04-25T22:19:30;20.88;53.81
79491;SHT31;68950;53.098;18.032;2023-04-25T22:21:57;20.85;53.80
79491;SHT31;68950;53.098;18.032;2023-04-25T22:24:24;20.82;53.79
79491;SHT31;68950;53.098;18.032;2023-04-25T22:26:57;20.79;53.79
79491;SHT31;68950;53.098;18.032;2023-04-25T22:29:24;20.76;53.79
79491;SHT31;68950;53.098;18.032;2023-04-25T22:31:51;20.74;53.80
79491;SHT31;68950;53.098;18.032;2023-04-25T22:34:18;20.71;53.79
79491;SHT31;68950;53.098;18.032;2023-04-25T22:36:45;20.69;53.78
79491;SHT31;68950;53.098;18.032;2023-04-25T22:39:12;20.66;53.78
79491;SHT31;68950;53.098;18.032;2023-04-25T22:41:41;20.64;53.76
79491;SHT31;68950;53.098;18.032;2023-04-25T22:44:07;20.63;53.76
79491;SHT31;68950;53.098;18.032;2023-04-25T22:46:34;20.59;53.75
79491;SHT31;68950;53.098;18.032;2023-04-25T22:49:01;20.58;53.79
79491;SHT31;68950;53.098;18.032;2023-04-25T22:51:27;20.55;53.74
79491;SHT31;68950;53.098;18.032;2023-04-25T22:53:54;20.53;53.78
79491;SHT31;68950;53.098;18.032;2023-04-25T22:56:21;20.51;53.77
79491;SHT31;68950;53.098;18.032;2023-04-25T22:58:49;20.50;53.78
79491;SHT31;68950;53.098;18.032;2023-04-25T23:01:16;20.47;53.79
79491;SHT31;68950;53.098;18.032;2023-04-25T23:03:44;20.45;53.79
79491;SHT31;68950;53.098;18.032;2023-04-25T23:06:10;20.43;53.79
79491;SHT31;68950;53.098;18.032;2023-04-25T23:08:38;20.41;53.80
79491;SHT31;68950;53.098;18.032;2023-04-25T23:11:06;20.38;53.78
79491;SHT31;68950;53.098;18.032;2023-04-25T23:13:33;20.36;53.80
79491;SHT31;68950;53.098;18.032;2023-04-25T23:16:07;20.34;53.80
79491;SHT31;68950;53.098;18.032;2023-04-25T23:18:36;20.32;53.80
79491;SHT31;68950;53.098;18.032;2023-04-25T23:21:04;20.29;53.80
79491;SHT31;68950;53.098;18.032;2023-04-25T23:23:34;20.26;53.80
79491;SHT31;68950;53.098;18.032;2023-04-25T23:26:08;20.24;53.80
79491;SHT31;68950;53.098;18.032;2023-04-25T23:28:36;20.22;53.81
79491;SHT31;68950;53.098;18.032;2023-04-25T23:31:04;20.18;53.81
79491;SHT31;68950;53.098;18.032;2023-04-25T23:33:32;20.17;53.80
79491;SHT31;68950;53.098;18.032;2023-04-25T23:35:59;20.15;53.85